Time;durP1;ratioP1;P1;durP2;ratioP2;P2;SDS_P1;SDS_P2;PMS_P1;PMS_P2;Temp;Humidity;BMP_temperature;BMP_pressure;BME280_temperature;BME280_humidity;BME280_pressure;Samples;Min_cycle;Max_cycle;Signal;HPM_P1;HPM_P2
2021/06/24 00:00:10;;;;;;;2.20;2.00;;;16.70;99.90;;;;;;5031560;28;20468;-67
2021/06/24 00:02:37;;;;;;;2.70;2.50;;;16.60;99.90;;;;;;5031717;28;20460;-68
2021/06/24 00:05:08;;;;;;;2.90;2.60;;;16.60;99.90;;;;;;5032147;28;20467;-68
2021/06/24 00:21:47;;;;;;;4.03;3.70;;;16.60;99.90;;;;;;5011184;28;20440;-68
2021/06/24 00:24:15;;;;;;;4.17;3.70;;;16.60;99.90;;;;;;5009955;28;20469;-69
2021/06/24 00:26:41;;;;;;;4.10;3.60;;;16.60;99.90;;;;;;5011925;28;20464;-68
2021/06/24 00:29:08;;;;;;;6.33;4.67;;;16.60;99.90;;;;;;5011667;28;20506;-68
2021/06/24 00:31:35;;;;;;;5.20;3.83;;;16.60;99.90;;;;;;5011381;28;20485;-69
2021/06/24 00:34:01;;;;;;;5.30;4.03;;;16.70;99.90;;;;;;5011456;28;20464;-69
2021/06/24 00:36:28;;;;;;;4.40;4.00;;;16.60;99.90;;;;;;5011620;28;21079;-68
2021/06/24 00:38:55;;;;;;;4.77;4.30;;;16.70;99.90;;;;;;5011952;28;20461;-69
2021/06/24 00:41:23;;;;;;;4.73;4.30;;;16.60;99.90;;;;;;5011598;28;20485;-68
2021/06/24 00:43:50;;;;;;;4.40;4.00;;;16.60;99.90;;;;;;5011833;28;20468;-69
2021/06/24 00:46:17;;;;;;;8.03;4.67;;;16.60;99.90;;;;;;5011313;28;20465;-67
2021/06/24 00:48:45;;;;;;;7.03;4.93;;;16.50;99.90;;;;;;5011398;28;20466;-69
2021/06/24 00:51:11;;;;;;;5.00;4.53;;;16.60;99.90;;;;;;5010710;28;21018;-68
2021/06/24 00:53:38;;;;;;;5.20;4.80;;;16.60;99.90;;;;;;5011192;28;20468;-68
2021/06/24 00:56:11;;;;;;;7.07;5.57;;;16.60;99.90;;;;;;5011176;28;20472;-69
2021/06/24 00:58:39;;;;;;;4.93;4.50;;;16.60;99.90;;;;;;5011143;28;20458;-68
2021/06/24 01:01:06;;;;;;;5.00;4.60;;;16.60;99.90;;;;;;5010613;28;20851;-68
2021/06/24 01:03:33;;;;;;;5.40;4.53;;;16.60;99.90;;;;;;5010901;28;20457;-67
2021/06/24 01:05:59;;;;;;;5.10;4.70;;;16.60;99.90;;;;;;5011211;28;20461;-69
2021/06/24 01:08:29;;;;;;;5.20;4.80;;;16.60;99.90;;;;;;5010958;28;20982;-68
2021/06/24 01:10:56;;;;;;;5.00;4.50;;;16.60;99.90;;;;;;5010029;28;20515;-68
2021/06/24 01:13:23;;;;;;;4.30;3.90;;;16.60;99.90;;;;;;5010781;28;20473;-68
2021/06/24 01:15:51;;;;;;;5.13;4.67;;;16.60;99.90;;;;;;5010890;28;20477;-69
2021/06/24 01:18:18;;;;;;;4.43;4.03;;;16.60;99.90;;;;;;5010951;28;20457;-69
2021/06/24 01:20:45;;;;;;;4.47;4.07;;;16.60;99.90;;;;;;5009861;28;20484;-67
2021/06/24 01:23:12;;;;;;;3.70;3.40;;;16.70;99.90;;;;;;5010733;28;20888;-68
2021/06/24 01:25:40;;;;;;;3.43;3.20;;;16.70;99.90;;;;;;5010608;28;20468;-69
2021/06/24 01:28:09;;;;;;;3.60;3.30;;;16.70;99.90;;;;;;5010620;28;20472;-68
2021/06/24 01:30:37;;;;;;;4.93;3.50;;;16.60;99.90;;;;;;5009710;28;20495;-69
2021/06/24 01:33:06;;;;;;;4.00;3.60;;;16.60;99.90;;;;;;5010673;28;20469;-68
2021/06/24 01:35:33;;;;;;;3.10;2.80;;;16.70;99.90;;;;;;5010496;28;20467;-69
2021/06/24 01:38:01;;;;;;;3.10;2.90;;;16.70;99.90;;;;;;5010294;28;20469;-69
2021/06/24 01:40:29;;;;;;;2.97;2.60;;;16.70;99.90;;;;;;5009731;28;21026;-68
2021/06/24 01:42:58;;;;;;;3.43;3.17;;;16.70;99.90;;;;;;5010459;28;20465;-68
2021/06/24 01:45:27;;;;;;;3.27;2.77;;;16.70;99.90;;;;;;5010427;28;20465;-68
2021/06/24 01:47:54;;;;;;;3.40;2.60;;;16.70;99.90;;;;;;5010614;28;20465;-69
2021/06/24 01:50:21;;;;;;;4.10;3.40;;;16.60;99.90;;;;;;5009510;28;20481;-69
2021/06/24 01:52:49;;;;;;;3.37;3.00;;;16.70;99.90;;;;;;5009997;28;20476;-68
2021/06/24 01:55:17;;;;;;;3.33;3.03;;;16.70;99.90;;;;;;5010067;28;20465;-69
2021/06/24 01:57:44;;;;;;;4.10;3.07;;;16.70;99.90;;;;;;5009879;28;20461;-69
2021/06/24 02:00:14;;;;;;;2.77;2.57;;;16.70;99.90;;;;;;5009397;28;20457;-69
2021/06/24 02:02:42;;;;;;;2.93;2.73;;;16.70;99.90;;;;;;5010165;28;20794;-69
2021/06/24 02:05:10;;;;;;;2.67;2.47;;;16.70;99.90;;;;;;5010263;28;20473;-69
2021/06/24 02:07:42;;;;;;;3.07;2.63;;;16.70;99.90;;;;;;5009582;28;20464;-69
2021/06/24 02:10:10;;;;;;;3.90;2.37;;;16.70;99.90;;;;;;5009484;28;20480;-69
2021/06/24 02:12:37;;;;;;;3.27;2.97;;;16.60;99.90;;;;;;5009483;28;20476;-69
2021/06/24 02:15:04;;;;;;;3.30;3.10;;;16.60;99.90;;;;;;5009662;28;20465;-69
2021/06/24 02:17:32;;;;;;;3.83;3.53;;;16.60;99.90;;;;;;5009489;28;20468;-69
2021/06/24 02:19:59;;;;;;;3.17;2.97;;;16.60;99.90;;;;;;5009395;28;20822;-68
2021/06/24 02:22:26;;;;;;;3.17;2.87;;;16.60;99.90;;;;;;5009561;28;20852;-69
2021/06/24 02:24:53;;;;;;;4.10;3.47;;;16.60;99.90;;;;;;5009479;28;20476;-68
2021/06/24 02:27:19;;;;;;;3.10;2.80;;;16.60;99.90;;;;;;5009749;28;20476;-68
2021/06/24 02:29:46;;;;;;;2.90;2.50;;;16.50;99.90;;;;;;5008704;28;20492;-69
2021/06/24 02:32:13;;;;;;;3.13;2.87;;;16.50;99.90;;;;;;5009682;28;20487;-68
2021/06/24 02:34:42;;;;;;;3.70;2.83;;;16.50;99.90;;;;;;5009203;28;20465;-67
2021/06/24 02:37:09;;;;;;;3.87;2.90;;;16.50;99.90;;;;;;5009572;28;20964;-68
2021/06/24 02:39:36;;;;;;;4.73;2.93;;;16.40;99.90;;;;;;5008580;28;20461;-68
2021/06/24 02:42:03;;;;;;;3.00;2.80;;;16.40;99.90;;;;;;5009511;28;20493;-68
2021/06/24 02:44:30;;;;;;;3.40;3.10;;;16.40;99.90;;;;;;5009286;28;20457;-68
2021/06/24 02:46:57;;;;;;;3.40;3.10;;;16.40;99.90;;;;;;5008899;28;20465;-67
2021/06/24 02:49:24;;;;;;;3.40;3.10;;;16.40;99.90;;;;;;5008572;28;20523;-68
2021/06/24 02:51:52;;;;;;;3.30;3.10;;;16.30;99.90;;;;;;5008858;28;20612;-67
2021/06/24 02:54:19;;;;;;;4.67;3.00;;;16.30;99.90;;;;;;5009402;28;20788;-68
2021/06/24 02:56:46;;;;;;;3.43;3.20;;;16.30;99.90;;;;;;5009106;28;20966;-67
2021/06/24 02:59:13;;;;;;;6.97;3.17;;;16.30;99.90;;;;;;5008671;28;20472;-68
2021/06/24 03:01:40;;;;;;;3.50;3.20;;;16.30;99.90;;;;;;5008645;28;20485;-66
2021/06/24 03:04:08;;;;;;;3.97;3.37;;;16.30;99.90;;;;;;5008952;28;20465;-68
2021/06/24 03:06:35;;;;;;;4.53;2.90;;;16.30;99.90;;;;;;5009303;28;20472;-68
2021/06/24 03:09:04;;;;;;;3.90;3.60;;;16.30;99.90;;;;;;5009037;28;20524;-68
2021/06/24 03:11:31;;;;;;;4.00;3.60;;;16.30;99.90;;;;;;5008365;28;20542;-68
2021/06/24 03:13:58;;;;;;;3.40;3.03;;;16.30;99.90;;;;;;5009286;28;20483;-68
2021/06/24 03:16:25;;;;;;;6.27;3.60;;;16.30;99.90;;;;;;5008875;28;20539;-68
2021/06/24 03:18:51;;;;;;;4.37;3.23;;;16.30;99.90;;;;;;5008946;28;20468;-67
2021/06/24 03:21:18;;;;;;;3.63;3.33;;;16.30;99.90;;;;;;5008200;28;20472;-69
2021/06/24 03:23:45;;;;;;;3.80;3.40;;;16.30;99.90;;;;;;5008789;28;20476;-68
2021/06/24 03:26:13;;;;;;;3.90;3.17;;;16.30;99.90;;;;;;5008726;28;20457;-67
2021/06/24 03:28:40;;;;;;;3.80;3.30;;;16.30;99.90;;;;;;5011232;28;20488;-67
2021/06/24 03:31:07;;;;;;;4.03;3.37;;;16.20;99.90;;;;;;5011573;28;20492;-68
2021/06/24 03:33:33;;;;;;;4.10;3.40;;;16.20;99.90;;;;;;5011347;28;21032;-67
2021/06/24 03:36:00;;;;;;;4.10;3.50;;;16.30;99.90;;;;;;5089387;22;20488;-74
2021/06/24 03:38:27;;;;;;;4.23;3.53;;;16.20;99.90;;;;;;5032095;28;20452;-73
2021/06/24 03:40:54;;;;;;;3.93;3.63;;;16.20;99.90;;;;;;5032173;28;20481;-73
2021/06/24 03:43:22;;;;;;;3.80;3.33;;;16.20;99.90;;;;;;5032463;28;20473;-74
2021/06/24 03:45:48;;;;;;;5.97;3.43;;;16.30;99.90;;;;;;5034864;28;20463;-74
2021/06/24 03:48:15;;;;;;;3.50;3.20;;;16.20;99.90;;;;;;5042496;28;20464;-74
2021/06/24 03:50:42;;;;;;;3.50;3.27;;;16.20;99.90;;;;;;5038596;28;20488;-74
2021/06/24 03:53:09;;;;;;;3.50;3.20;;;16.30;99.90;;;;;;5031645;28;20514;-74
2021/06/24 03:55:37;;;;;;;3.40;3.10;;;16.20;99.90;;;;;;5023985;28;20461;-73
2021/06/24 03:58:04;;;;;;;3.60;3.30;;;16.30;99.90;;;;;;5030127;28;20466;-74
2021/06/24 04:00:32;;;;;;;3.60;3.00;;;16.30;99.90;;;;;;5028799;28;20479;-74
2021/06/24 04:02:59;;;;;;;6.00;3.73;;;16.30;99.90;;;;;;5037326;28;20479;-73
2021/06/24 04:05:28;;;;;;;4.53;3.80;;;16.30;99.90;;;;;;5028823;28;20479;-74
2021/06/24 04:08:00;;;;;;;3.80;3.50;;;16.30;99.90;;;;;;5031818;28;20850;-74
2021/06/24 04:10:27;;;;;;;3.87;3.57;;;16.40;99.90;;;;;;5038455;28;20487;-73
2021/06/24 04:12:54;;;;;;;3.07;2.87;;;16.40;99.90;;;;;;5051469;28;20459;-75
2021/06/24 04:15:21;;;;;;;3.57;3.27;;;16.40;99.90;;;;;;5051627;28;20509;-74
2021/06/24 04:17:49;;;;;;;3.23;3.03;;;16.40;99.90;;;;;;5042327;28;20494;-74
2021/06/24 04:20:16;;;;;;;3.60;3.13;;;16.40;99.90;;;;;;5030959;28;20457;-75
2021/06/24 04:22:44;;;;;;;3.10;2.90;;;16.50;99.90;;;;;;5050834;28;20459;-74
2021/06/24 04:25:12;;;;;;;3.20;2.90;;;16.50;99.90;;;;;;5051246;28;20467;-74
2021/06/24 04:27:39;;;;;;;3.50;3.10;;;16.50;99.90;;;;;;5051687;28;20459;-75
2021/06/24 04:30:07;;;;;;;3.67;3.37;;;16.60;99.90;;;;;;5050486;28;20494;-75
2021/06/24 04:32:34;;;;;;;3.70;3.40;;;16.60;99.90;;;;;;5049441;28;20883;-74
2021/06/24 04:35:02;;;;;;;3.13;2.83;;;16.60;99.90;;;;;;5049227;28;20470;-74
2021/06/24 04:37:29;;;;;;;3.10;2.83;;;16.60;99.90;;;;;;5050056;28;20467;-74
2021/06/24 04:39:56;;;;;;;4.00;3.03;;;16.60;99.90;;;;;;5049494;28;20462;-74
2021/06/24 04:42:23;;;;;;;2.93;2.70;;;16.60;99.90;;;;;;5049706;28;20573;-74
2021/06/24 04:44:50;;;;;;;3.33;3.00;;;16.60;99.90;;;;;;5050225;28;20843;-74
2021/06/24 04:47:16;;;;;;;3.10;2.90;;;16.60;99.90;;;;;;5050413;28;20491;-74
2021/06/24 04:49:43;;;;;;;3.50;3.17;;;16.60;99.90;;;;;;5050276;28;20459;-74
2021/06/24 04:52:12;;;;;;;4.10;3.10;;;16.60;99.90;;;;;;5050627;28;20499;-74
2021/06/24 04:54:38;;;;;;;3.40;3.10;;;16.60;99.90;;;;;;5050975;28;20838;-74
2021/06/24 04:57:06;;;;;;;4.07;3.10;;;16.60;99.90;;;;;;5050274;28;20459;-75
2021/06/24 04:59:32;;;;;;;3.37;2.90;;;16.70;99.90;;;;;;5050141;28;20466;-74
2021/06/24 05:01:59;;;;;;;3.30;3.00;;;16.60;99.90;;;;;;5034370;28;21017;-74
2021/06/24 05:04:26;;;;;;;3.13;2.83;;;16.70;99.90;;;;;;5038769;28;20549;-75
2021/06/24 05:06:54;;;;;;;3.67;3.37;;;16.70;99.90;;;;;;5036734;28;20461;-74
2021/06/24 05:09:26;;;;;;;3.83;3.33;;;16.80;99.90;;;;;;5039006;28;20518;-75
2021/06/24 05:11:52;;;;;;;3.20;2.93;;;16.70;99.90;;;;;;5039364;28;20622;-74
2021/06/24 05:14:19;;;;;;;4.00;3.60;;;16.80;99.90;;;;;;5047441;28;20462;-74
2021/06/24 05:16:46;;;;;;;4.37;4.00;;;16.80;99.90;;;;;;5041179;28;20456;-74
2021/06/24 05:19:13;;;;;;;3.47;3.17;;;16.80;99.90;;;;;;5039639;28;21020;-74
2021/06/24 05:21:41;;;;;;;4.47;3.03;;;16.90;99.90;;;;;;5034308;28;20476;-74
2021/06/24 05:24:10;;;;;;;4.20;3.53;;;16.90;99.90;;;;;;5027366;28;20468;-74
2021/06/24 05:26:38;;;;;;;3.10;2.80;;;16.90;99.90;;;;;;5027151;28;20468;-74
2021/06/24 05:29:05;;;;;;;3.37;3.07;;;16.90;99.90;;;;;;5028160;28;20777;-74
2021/06/24 05:31:32;;;;;;;2.80;2.60;;;16.90;99.90;;;;;;5029017;28;20947;-74
2021/06/24 05:33:59;;;;;;;3.37;3.07;;;17.00;99.90;;;;;;5029937;28;20514;-74
2021/06/24 05:36:25;;;;;;;3.83;2.80;;;17.00;99.90;;;;;;5030004;28;20498;-73
2021/06/24 05:38:52;;;;;;;3.53;2.90;;;17.10;99.90;;;;;;5029567;28;20472;-74
2021/06/24 05:41:19;;;;;;;4.87;3.37;;;17.00;99.90;;;;;;5029274;28;20483;-73
2021/06/24 05:43:47;;;;;;;3.40;3.10;;;17.00;99.90;;;;;;5029734;28;20974;-73
2021/06/24 05:46:13;;;;;;;3.40;3.10;;;17.00;99.90;;;;;;5029431;28;20878;-74
2021/06/24 05:48:40;;;;;;;4.37;3.30;;;17.10;99.90;;;;;;5029659;28;20468;-74
2021/06/24 05:51:07;;;;;;;3.90;3.60;;;17.10;99.90;;;;;;5027675;28;20499;-74
2021/06/24 05:53:33;;;;;;;4.03;3.50;;;17.20;99.90;;;;;;5029524;28;20461;-74
2021/06/24 05:56:00;;;;;;;3.73;3.43;;;17.20;99.90;;;;;;5029304;28;20464;-73
2021/06/24 05:58:29;;;;;;;3.13;2.93;;;17.30;99.90;;;;;;5029850;28;20490;-74
2021/06/24 06:00:58;;;;;;;3.63;3.33;;;17.30;99.90;;;;;;5028394;28;20468;-74
2021/06/24 06:03:26;;;;;;;3.67;3.40;;;17.40;99.90;;;;;;5029304;28;20464;-74
2021/06/24 06:05:54;;;;;;;4.63;3.20;;;17.40;99.90;;;;;;5029129;28;20537;-73
2021/06/24 06:08:22;;;;;;;5.07;3.70;;;17.50;99.90;;;;;;5029243;28;20497;-74
2021/06/24 06:10:49;;;;;;;3.80;3.40;;;17.60;99.90;;;;;;5028858;28;20495;-74
2021/06/24 06:13:16;;;;;;;6.53;3.37;;;17.70;99.90;;;;;;5028985;28;20955;-74
2021/06/24 06:15:44;;;;;;;3.90;3.60;;;17.80;99.90;;;;;;5029150;28;20464;-74
2021/06/24 06:18:15;;;;;;;5.50;3.70;;;17.80;99.90;;;;;;5028798;28;20928;-74
2021/06/24 06:20:44;;;;;;;4.30;3.87;;;17.80;99.90;;;;;;5028905;28;20484;-74
2021/06/24 06:23:10;;;;;;;4.27;3.87;;;17.80;99.90;;;;;;5028801;28;20793;-74
2021/06/24 06:25:37;;;;;;;3.33;3.03;;;17.80;99.90;;;;;;5028992;28;20471;-74
2021/06/24 06:28:04;;;;;;;3.80;3.50;;;17.90;99.90;;;;;;5028512;28;20889;-74
2021/06/24 06:30:31;;;;;;;9.33;4.10;;;18.00;99.90;;;;;;5028276;28;20484;-74
2021/06/24 06:32:58;;;;;;;3.93;3.60;;;18.00;99.90;;;;;;5028537;28;20464;-74
2021/06/24 06:35:26;;;;;;;7.33;4.23;;;18.10;99.90;;;;;;5029288;28;20460;-74
2021/06/24 06:37:53;;;;;;;4.90;4.50;;;18.20;99.90;;;;;;5028538;28;20501;-74
2021/06/24 06:40:19;;;;;;;5.00;4.37;;;18.30;99.90;;;;;;5028069;28;20967;-74
2021/06/24 06:42:47;;;;;;;5.40;3.40;;;18.50;99.90;;;;;;5028764;28;20460;-73
2021/06/24 06:45:17;;;;;;;4.13;3.73;;;18.50;99.90;;;;;;5028436;28;20496;-73
2021/06/24 06:47:44;;;;;;;4.07;3.77;;;18.50;99.90;;;;;;5028716;28;20464;-75
2021/06/24 06:50:12;;;;;;;5.17;3.87;;;18.50;99.90;;;;;;5027672;28;20464;-74
2021/06/24 06:52:40;;;;;;;4.80;3.63;;;18.50;99.90;;;;;;5028572;28;21033;-73
2021/06/24 06:55:07;;;;;;;4.90;3.23;;;18.60;99.90;;;;;;5028301;28;20472;-73
2021/06/24 06:57:34;;;;;;;3.93;3.40;;;18.60;99.90;;;;;;5029074;28;20464;-74
2021/06/24 07:00:01;;;;;;;4.10;3.80;;;18.60;99.90;;;;;;5027678;28;20849;-74
2021/06/24 07:02:27;;;;;;;3.50;3.20;;;18.70;99.90;;;;;;5030942;28;20486;-73
2021/06/24 07:04:54;;;;;;;4.20;3.30;;;18.70;99.90;;;;;;5032198;28;20468;-73
2021/06/24 07:07:21;;;;;;;3.83;3.53;;;18.60;99.90;;;;;;5031056;28;20471;-74
2021/06/24 07:09:49;;;;;;;3.63;3.33;;;18.50;99.90;;;;;;5030815;28;21035;-75
2021/06/24 07:12:16;;;;;;;5.67;3.90;;;18.50;99.90;;;;;;5030942;28;20866;-73
2021/06/24 07:14:42;;;;;;;3.53;3.27;;;18.40;99.90;;;;;;5030029;28;20513;-74
2021/06/24 07:17:09;;;;;;;3.70;3.50;;;18.40;99.90;;;;;;5016029;28;20461;-74
2021/06/24 07:19:36;;;;;;;3.50;3.20;;;18.30;99.90;;;;;;5011630;28;20461;-74
2021/06/24 07:22:03;;;;;;;3.60;3.40;;;18.30;99.90;;;;;;5011616;28;20477;-74
2021/06/24 07:24:30;;;;;;;3.80;3.40;;;18.30;99.90;;;;;;5012637;28;20819;-74
2021/06/24 07:26:58;;;;;;;3.80;3.50;;;18.20;99.90;;;;;;5012090;28;20461;-74
2021/06/24 07:29:25;;;;;;;4.13;3.77;;;18.30;99.90;;;;;;5011905;28;20467;-73
2021/06/24 07:31:51;;;;;;;4.50;4.10;;;18.30;99.90;;;;;;5012018;28;20495;-74
2021/06/24 07:34:18;;;;;;;4.13;3.73;;;18.30;99.90;;;;;;5012419;28;20849;-74
2021/06/24 07:36:45;;;;;;;4.17;3.40;;;18.40;99.90;;;;;;5012337;28;20823;-74
2021/06/24 07:39:12;;;;;;;4.03;3.73;;;18.50;99.90;;;;;;5011869;28;20862;-74
2021/06/24 07:41:39;;;;;;;3.93;3.33;;;18.50;99.90;;;;;;5012272;28;20488;-74
2021/06/24 07:44:07;;;;;;;3.80;3.50;;;18.60;99.90;;;;;;5011735;28;20472;-74
2021/06/24 07:46:34;;;;;;;3.63;3.33;;;18.60;99.90;;;;;;5012417;28;21025;-74
2021/06/24 07:49:01;;;;;;;3.70;3.40;;;18.70;99.90;;;;;;5011525;28;20461;-75
2021/06/24 07:51:27;;;;;;;3.83;3.53;;;18.70;99.90;;;;;;5011718;28;20488;-74
2021/06/24 07:53:54;;;;;;;4.50;4.10;;;18.80;99.90;;;;;;5012154;28;20967;-74
2021/06/24 07:56:21;;;;;;;4.07;3.67;;;18.80;99.90;;;;;;5011570;28;20469;-75
2021/06/24 07:58:49;;;;;;;3.37;3.17;;;18.80;99.90;;;;;;5011899;28;20488;-74
2021/06/24 08:01:17;;;;;;;3.57;3.27;;;18.90;99.90;;;;;;5011397;28;20484;-74
2021/06/24 08:03:43;;;;;;;3.67;3.37;;;18.90;99.90;;;;;;5012975;28;20461;-74
2021/06/24 08:06:10;;;;;;;3.63;3.33;;;18.80;99.90;;;;;;5011527;28;20847;-74
2021/06/24 08:08:37;;;;;;;3.47;3.17;;;18.80;99.90;;;;;;5011619;28;20465;-74
2021/06/24 08:11:04;;;;;;;3.20;3.00;;;18.80;99.90;;;;;;5010509;28;20485;-74
2021/06/24 08:13:31;;;;;;;3.00;2.70;;;18.80;99.90;;;;;;5010867;28;20467;-74
2021/06/24 08:15:59;;;;;;;3.07;2.87;;;18.90;99.90;;;;;;5011351;28;20457;-74
2021/06/24 08:18:29;;;;;;;3.40;3.10;;;18.90;99.90;;;;;;5011196;28;20881;-74
2021/06/24 08:20:55;;;;;;;5.40;3.50;;;19.00;99.90;;;;;;5010965;28;20487;-74
2021/06/24 08:23:23;;;;;;;4.30;3.30;;;19.10;99.90;;;;;;5010986;28;20457;-74
2021/06/24 08:25:50;;;;;;;4.17;3.57;;;19.10;99.90;;;;;;5011399;28;20871;-74
2021/06/24 08:28:17;;;;;;;3.50;3.30;;;19.20;99.90;;;;;;5010513;28;20461;-74
2021/06/24 08:30:44;;;;;;;3.63;3.30;;;19.30;99.90;;;;;;5010820;28;20528;-74
2021/06/24 08:33:12;;;;;;;3.60;3.30;;;19.40;99.90;;;;;;5010648;28;20488;-74
2021/06/24 08:35:40;;;;;;;3.77;3.20;;;19.40;99.90;;;;;;5011225;28;20461;-73
2021/06/24 08:38:07;;;;;;;3.73;2.83;;;19.50;99.90;;;;;;5010244;28;20465;-73
2021/06/24 08:40:35;;;;;;;3.27;2.40;;;19.40;99.90;;;;;;5010304;28;20485;-73
2021/06/24 08:43:01;;;;;;;3.03;2.73;;;19.30;99.90;;;;;;5010815;28;20465;-73
2021/06/24 08:45:28;;;;;;;3.10;2.90;;;19.30;99.90;;;;;;5010713;28;20461;-74
2021/06/24 08:47:57;;;;;;;2.60;2.40;;;19.40;99.90;;;;;;5010872;28;20472;-75
2021/06/24 08:50:23;;;;;;;4.43;2.80;;;19.40;99.90;;;;;;5010318;28;20488;-74
2021/06/24 08:52:52;;;;;;;7.17;2.80;;;19.40;99.90;;;;;;5010596;28;20497;-74
2021/06/24 08:55:20;;;;;;;2.77;2.50;;;19.40;99.90;;;;;;5010561;28;20468;-74
2021/06/24 08:57:47;;;;;;;2.60;2.40;;;19.50;99.90;;;;;;5010641;28;20461;-74
2021/06/24 09:00:15;;;;;;;3.57;3.27;;;19.60;99.90;;;;;;5009865;28;20473;-74
2021/06/24 09:02:43;;;;;;;2.80;2.60;;;19.70;99.90;;;;;;5010693;28;20461;-74
2021/06/24 09:05:11;;;;;;;3.63;3.23;;;19.80;99.90;;;;;;5010024;28;20461;-74
2021/06/24 09:07:48;;;;;;;3.00;2.80;;;19.90;99.90;;;;;;5010765;28;20516;-74
2021/06/24 09:10:16;;;;;;;2.57;2.37;;;19.90;99.90;;;;;;5009834;28;20839;-74
2021/06/24 09:12:55;;;;;;;3.10;2.80;;;19.90;99.90;;;;;;5010436;28;20488;-74
2021/06/24 09:15:23;;;;;;;3.70;2.53;;;19.90;99.90;;;;;;5010395;28;20693;-74
2021/06/24 09:17:50;;;;;;;3.40;2.60;;;19.90;99.90;;;;;;5010043;28;20465;-74
2021/06/24 09:20:32;;;;;;;3.00;2.80;;;19.90;99.90;;;;;;5009338;28;20956;-74
2021/06/24 09:23:07;;;;;;;2.77;2.57;;;19.90;99.90;;;;;;5009987;28;20459;-75
2021/06/24 09:25:35;;;;;;;2.67;2.47;;;19.90;99.90;;;;;;5009734;28;20457;-74
2021/06/24 09:28:02;;;;;;;2.63;2.43;;;19.90;99.90;;;;;;5010407;28;20504;-75
2021/06/24 09:30:30;;;;;;;3.40;3.10;;;19.80;99.90;;;;;;5009466;28;20481;-74
2021/06/24 09:33:06;;;;;;;3.30;3.00;;;19.90;99.90;;;;;;5009441;28;20485;-74
2021/06/24 09:35:33;;;;;;;4.00;2.60;;;19.90;99.90;;;;;;5009941;28;20468;-74
2021/06/24 09:38:01;;;;;;;3.13;2.93;;;20.00;99.90;;;;;;5106187;22;20494;-68
2021/06/24 09:40:44;;;;;;;3.10;2.90;;;20.10;99.90;;;;;;5048238;28;20487;-69
2021/06/24 09:43:16;;;;;;;3.20;2.80;;;20.30;99.90;;;;;;5049536;28;20545;-67
2021/06/24 09:46:05;;;;;;;2.73;2.53;;;20.50;99.90;;;;;;5049258;28;20826;-68
2021/06/24 09:48:34;;;;;;;3.20;3.00;;;20.60;99.90;;;;;;5049872;28;20463;-68
2021/06/24 09:51:16;;;;;;;3.97;2.60;;;20.70;99.90;;;;;;5049145;28;20479;-68
2021/06/24 09:53:55;;;;;;;3.20;2.40;;;20.90;99.90;;;;;;5049797;28;20483;-69
2021/06/24 09:56:25;;;;;;;3.10;2.90;;;21.10;99.90;;;;;;5032521;28;20480;-69
2021/06/24 09:58:53;;;;;;;3.30;3.10;;;21.40;99.90;;;;;;5028854;28;21028;-69
2021/06/24 10:01:31;;;;;;;4.07;3.43;;;21.60;99.90;;;;;;5028443;28;20862;-70
2021/06/24 10:04:01;;;;;;;4.07;3.23;;;21.60;99.90;;;;;;5028850;28;20975;-69
2021/06/24 10:06:28;;;;;;;3.40;3.20;;;21.60;99.90;;;;;;5028716;28;20467;-69
2021/06/24 10:08:56;;;;;;;4.37;3.07;;;21.50;99.90;;;;;;5028357;28;20464;-69
2021/06/24 10:11:25;;;;;;;3.10;2.77;;;21.40;99.90;;;;;;5028213;28;20487;-69
2021/06/24 10:13:52;;;;;;;3.03;2.83;;;21.30;99.90;;;;;;5028564;28;20492;-69
2021/06/24 10:16:19;;;;;;;3.07;2.67;;;21.20;99.90;;;;;;5029006;28;20487;-69
2021/06/24 10:18:48;;;;;;;2.57;2.37;;;21.10;99.90;;;;;;5028235;28;20461;-69
2021/06/24 10:21:15;;;;;;;2.53;2.33;;;21.10;99.90;;;;;;5028390;28;21030;-69
2021/06/24 10:23:48;;;;;;;3.00;2.43;;;21.00;99.90;;;;;;5028495;28;20490;-68
2021/06/24 10:26:16;;;;;;;2.50;2.30;;;20.90;99.90;;;;;;5029051;28;20468;-70
2021/06/24 10:28:44;;;;;;;3.17;2.23;;;20.90;99.90;;;;;;5028329;28;20467;-69
2021/06/24 10:31:35;;;;;;;2.20;2.00;;;21.00;99.90;;;;;;5028392;28;20480;-68
2021/06/24 10:34:03;;;;;;;2.60;2.40;;;21.00;99.90;;;;;;5028383;28;20541;-67
2021/06/24 10:36:30;;;;;;;2.20;2.00;;;21.00;99.90;;;;;;5028320;28;20467;-69
2021/06/24 10:38:57;;;;;;;2.10;2.00;;;21.00;99.90;;;;;;5028281;28;20471;-68
2021/06/24 10:41:24;;;;;;;2.97;2.77;;;21.00;99.90;;;;;;5027591;28;20715;-69
2021/06/24 10:43:53;;;;;;;1.97;1.87;;;20.90;99.90;;;;;;5028399;28;20456;-69
2021/06/24 10:46:22;;;;;;;3.03;2.40;;;20.80;99.90;;;;;;5028447;28;20456;-69
2021/06/24 10:48:49;;;;;;;2.73;2.13;;;20.70;99.90;;;;;;5028244;28;20441;-69
2021/06/24 10:51:17;;;;;;;2.23;2.07;;;20.70;99.90;;;;;;5027631;28;20472;-68
2021/06/24 10:53:54;;;;;;;1.70;1.60;;;20.70;99.90;;;;;;5027872;28;20491;-68
2021/06/24 10:56:36;;;;;;;2.07;1.90;;;20.80;99.90;;;;;;5028320;28;20598;-67
2021/06/24 10:59:27;;;;;;;2.43;2.23;;;20.90;99.90;;;;;;5027949;28;20464;-65
2021/06/24 11:02:03;;;;;;;2.73;2.30;;;21.10;99.90;;;;;;5027959;28;21109;-66
2021/06/24 11:04:33;;;;;;;1.90;1.80;;;21.40;99.90;;;;;;5028521;28;20837;-66
2021/06/24 11:07:06;;;;;;;1.90;1.80;;;21.50;99.90;;;;;;5028048;28;20457;-66
2021/06/24 11:09:33;;;;;;;2.10;1.90;;;21.40;99.90;;;;;;5027431;28;20460;-65
2021/06/24 11:12:00;;;;;;;2.07;1.87;;;21.40;99.90;;;;;;5027859;28;20487;-66
2021/06/24 11:14:58;;;;;;;2.10;1.90;;;21.40;99.90;;;;;;5028112;28;20464;-66
2021/06/24 11:17:46;;;;;;;1.90;1.80;;;21.30;99.90;;;;;;5028105;28;20464;-66
2021/06/24 11:20:16;;;;;;;3.33;2.30;;;21.40;99.90;;;;;;5027334;28;20464;-66
2021/06/24 11:22:47;;;;;;;2.43;2.20;;;21.50;99.90;;;;;;5027983;28;20460;-65
2021/06/24 11:25:14;;;;;;;2.30;1.80;;;21.70;99.90;;;;;;5028188;28;20496;-66
2021/06/24 11:27:40;;;;;;;1.50;1.40;;;22.00;99.90;;;;;;5028066;28;20464;-67
2021/06/24 11:30:11;;;;;;;2.10;1.90;;;22.20;99.90;;;;;;5027335;28;20464;-66
2021/06/24 11:32:42;;;;;;;1.93;1.73;;;22.20;99.90;;;;;;5028014;28;21029;-67
2021/06/24 11:35:17;;;;;;;2.30;1.80;;;22.20;99.90;;;;;;5028340;28;20530;-66
2021/06/24 11:37:44;;;;;;;4.03;2.13;;;22.20;99.90;;;;;;5027704;28;21000;-66
2021/06/24 11:40:13;;;;;;;2.17;1.97;;;22.10;99.90;;;;;;5027724;28;20464;-66
2021/06/24 11:42:42;;;;;;;2.00;1.90;;;22.10;99.90;;;;;;5027908;28;20452;-67
2021/06/24 11:45:12;;;;;;;1.70;1.60;;;22.20;99.90;;;;;;5028043;28;20460;-65
2021/06/24 11:47:44;;;;;;;2.17;1.80;;;22.20;99.90;;;;;;5027640;28;20502;-66
2021/06/24 12:04:13;;;;;;;2.77;2.23;;;21.40;99.90;;;;;;5031333;28;20598;-66
2021/06/24 12:06:48;;;;;;;1.50;1.40;;;21.40;99.90;;;;;;5031158;28;20554;-67
2021/06/24 12:09:20;;;;;;;1.50;1.40;;;21.40;99.90;;;;;;5030774;28;20463;-66
2021/06/24 12:11:48;;;;;;;2.37;1.63;;;21.40;99.90;;;;;;5030991;28;20491;-67
2021/06/24 12:14:20;;;;;;;1.70;1.60;;;21.50;99.90;;;;;;5031222;28;20479;-67
2021/06/24 12:17:12;;;;;;;2.00;1.40;;;21.60;99.90;;;;;;5030690;28;20978;-66
2021/06/24 12:19:47;;;;;;;2.03;1.60;;;21.70;99.90;;;;;;5030346;28;21148;-66
2021/06/24 12:22:15;;;;;;;1.60;1.33;;;21.80;99.90;;;;;;5030983;28;20491;-67
2021/06/24 12:24:43;;;;;;;1.60;1.50;;;21.80;99.90;;;;;;5029775;28;20460;-65
2021/06/24 12:27:21;;;;;;;1.67;1.47;;;21.80;99.90;;;;;;5011001;28;20465;-66
2021/06/24 12:29:49;;;;;;;1.50;1.40;;;21.80;99.90;;;;;;5010327;28;20484;-67
2021/06/24 12:32:18;;;;;;;1.47;1.37;;;21.70;99.90;;;;;;5010674;28;20496;-66
2021/06/24 12:34:45;;;;;;;3.63;1.53;;;21.70;99.90;;;;;;5010674;28;20472;-67
2021/06/24 12:37:12;;;;;;;1.60;1.50;;;21.80;99.90;;;;;;5010727;28;20472;-65
2021/06/24 12:39:40;;;;;;;3.97;1.70;;;22.00;99.90;;;;;;5010328;28;20457;-67
2021/06/24 12:42:08;;;;;;;2.17;2.07;;;22.20;99.90;;;;;;5010747;28;21019;-67
2021/06/24 12:44:39;;;;;;;2.20;1.57;;;22.30;99.90;;;;;;5010783;28;20457;-68
2021/06/24 12:47:06;;;;;;;1.30;1.20;;;22.70;99.90;;;;;;5010773;28;20539;-67
2021/06/24 12:49:36;;;;;;;1.67;1.50;;;22.90;99.90;;;;;;5009974;28;20461;-67
2021/06/24 12:52:04;;;;;;;1.93;1.23;;;22.80;99.90;;;;;;5010444;28;20473;-67
2021/06/24 12:54:39;;;;;;;1.40;1.30;;;22.80;99.90;;;;;;5010479;28;20555;-67
2021/06/24 12:57:06;;;;;;;1.20;1.10;;;22.90;99.90;;;;;;5010675;28;20484;-66
2021/06/24 12:59:33;;;;;;;1.47;1.37;;;23.00;99.90;;;;;;5009882;28;21027;-67
2021/06/24 13:02:05;;;;;;;1.63;1.20;;;23.10;99.90;;;;;;5011168;28;20493;-68
2021/06/24 13:04:39;;;;;;;1.30;1.20;;;23.20;99.90;;;;;;5011540;28;20837;-67
2021/06/24 13:07:07;;;;;;;1.43;1.33;;;23.40;99.90;;;;;;5010840;28;20465;-68
2021/06/24 13:09:38;;;;;;;2.73;1.30;;;23.40;99.90;;;;;;5010425;28;20458;-68
2021/06/24 13:12:07;;;;;;;1.10;1.00;;;23.50;99.90;;;;;;5010638;28;20489;-67
2021/06/24 13:14:37;;;;;;;2.17;1.27;;;23.70;99.90;;;;;;5010848;28;20539;-68
2021/06/24 13:17:09;;;;;;;4.37;1.50;;;24.00;99.90;;;;;;5010508;28;20898;-68
2021/06/24 13:19:38;;;;;;;1.60;1.50;;;24.10;99.90;;;;;;5010307;28;20469;-67
2021/06/24 13:22:15;;;;;;;1.30;1.20;;;24.00;99.90;;;;;;5010185;28;20688;-66